• Join FlightAware (Why Join?)
  • Login
  • US Flag 
07:28PM EDT


 

Airport Tracker/Info


-or-


 

Live Flight TrackerFlight Track Log ✈ N376RC ✈ 09-Jul-2013 ✈ KLIT - KDTO

Flight Track Log - Related Links

Times and Time Zones

All times are in EDT time to prevent confusion due to time zone crossing. See the N376RC flight status page for this flight to view local times or setup timezone preferences in your user account.

Time Position Orientation Groundspeed Altitude Reporting Facility
EDT Latitude Longitude Course Direction KTS MPH feet Rate Location/Type
09:04PM 34.6881 -92.2742 224° Southwest 155 178 3,600  Level Memphis Center
09:04PM 34.6958 -92.3147 283° West 159 183 5,100 1,680 Climbing Memphis Center
09:06PM 34.6803 -92.3800 254° West 159 183 7,400 1,620 Climbing Memphis Center
09:07PM 34.6667 -92.4328 253° West 164 189 9,100 1,620 Climbing Memphis Center
09:08PM 34.6511 -92.4906 252° West 170 196 10,700 1,620 Climbing Memphis Center
09:09PM 34.6333 -92.5531 251° West 181 208 12,400 1,560 Climbing Memphis Center
09:10PM 34.6156 -92.6131 250° West 186 214 13,900 1,440 Climbing Memphis Center
09:11PM 34.6000 -92.6758 253° West 192 221 15,300 1,440 Climbing Memphis Center
09:12PM 34.5819 -92.7408 251° West 197 227 16,800 1,440 Climbing Memphis Center
09:13PM 34.5642 -92.8036 251° West 203 234 18,200 1,320 Climbing Memphis Center
09:14PM 34.5483 -92.8661 253° West 203 234 19,500 1,200 Climbing Memphis Center
09:15PM 34.5322 -92.9286 253° West 203 234 20,700 1,080 Climbing Memphis Center
09:16PM 34.5186 -92.9911 255° West 208 239 21,700 720 Climbing Memphis Center
09:17PM 34.5067 -93.0589 258° West 203 234 22,200 120 Climbing Memphis Center
09:18PM 34.4903 -93.1364 256° West 216 249 22,000 -120 Descending Memphis Center
09:19PM 34.4697 -93.2189 253° West 244 281 22,000  Level Memphis Center
09:20PM 34.4469 -93.2989 251° West 250 288 22,000  Level Memphis Center
09:21PM 34.4219 -93.3811 250° West 258 297 22,000  Level Memphis Center
09:22PM 34.4011 -93.4658 253° West 264 304 22,000  Level Memphis Center
09:24PM 34.3561 -93.6200 251° West 274 315 22,000  Level Fort Worth Center
09:25PM 34.3336 -93.7039 252° West 269 310 22,000  Level Fort Worth Center
09:26PM 34.3067 -93.7856 248° West 269 310 22,000  Level Fort Worth Center
09:27PM 34.2839 -93.8669 251° West 269 310 22,000  Level Fort Worth Center
09:28PM 34.2611 -93.9483 251° West 269 310 22,000  Level Fort Worth Center
09:29PM 34.2364 -94.0297 250° West 269 310 22,000  Level Fort Worth Center
09:30PM 34.2136 -94.1136 252° West 269 310 22,000  Level Fort Worth Center
09:31PM 34.1883 -94.1947 249° West 269 310 22,000  Level Fort Worth Center
09:32PM 34.1633 -94.2736 249° West 269 310 22,000  Level Fort Worth Center
09:33PM 34.1403 -94.3572 252° West 269 310 22,000  Level Fort Worth Center
09:34PM 34.1153 -94.4383 250° West 269 310 22,000  Level Fort Worth Center
09:35PM 34.0942 -94.5192 253° West 269 310 22,000  Level Fort Worth Center
09:36PM 34.0669 -94.6031 249° West 269 310 22,000  Level Fort Worth Center
09:37PM 34.0436 -94.6814 250° West 269 310 22,000  Level Fort Worth Center
09:38PM 34.0181 -94.7650 250° West 269 310 22,000  Level Fort Worth Center
09:39PM 33.9928 -94.8458 249° West 269 310 22,000  Level Fort Worth Center
09:40PM 33.9672 -94.9292 250° West 269 310 22,000  Level Fort Worth Center
09:41PM 33.9436 -95.0075 250° West 269 310 22,000  Level Fort Worth Center
09:42PM 33.9181 -95.0908 250° West 269 310 22,000  Level Fort Worth Center
09:43PM 33.8925 -95.1742 250° West 269 310 22,000 -300 Level Fort Worth Center
09:44PM 33.8689 -95.2547 251° West 269 310 21,400 -900 Descending Fort Worth Center
09:45PM 33.8414 -95.3453 250° West 275 316 20,300 -1,200 Descending Fort Worth Center
09:46PM 33.8133 -95.4336 249° West 280 322 19,100 -1,200 Descending Fort Worth Center
09:47PM 33.7836 -95.5267 249° West 290 334 17,900 -1,200 Descending Fort Worth Center
09:48PM 33.7558 -95.6272 252° West 290 334 16,700 -1,200 Descending Fort Worth Center
09:49PM 33.7258 -95.7203 249° West 290 334 15,600 -1,200 Descending Fort Worth Center
09:50PM 33.6978 -95.8106 250° West 290 334 14,400 -1,200 Descending Fort Worth Center
09:51PM 33.6697 -95.9036 250° West 290 334 13,300 -1,200 Descending Fort Worth Center
09:52PM 33.6394 -95.9939 248° West 290 334 12,000 -1,200 Descending Fort Worth Center
09:53PM 33.6153 -96.0789 251° West 290 334 11,000 -1,020 Descending Fort Worth Center
09:54PM 33.5869 -96.1617 248° West 282 325 10,000 -1,080 Descending Fort Worth Center
09:55PM 33.5628 -96.2444 251° West 271 312 8,900 -1,320 Descending Fort Worth Center
09:56PM 33.5364 -96.3244 248° West 271 312 7,400 -1,320 Descending Fort Worth Center
09:57PM 33.5119 -96.4044 250° West 263 303 6,300 -780 Descending Fort Worth Center
09:58PM 33.4875 -96.4769 248° West 246 283 5,900 -240 Descending Fort Worth Center
09:59PM 33.4669 -96.5469 251° West 236 272 5,900 -180 Level Fort Worth Center
10:00PM 33.4403 -96.6119 244° Southwest 231 266 5,600 -840 Descending Fort Worth Center
10:01PM 33.3906 -96.6669 223° Southwest 231 266 4,300 -900 Descending Fort Worth Center
10:02PM 33.3744 -96.7444 256° West 236 272 3,900 -240 Descending Fort Worth Center
10:04PM 33.3458 -96.8839 256° West 236 272 3,700 -300 Descending Fort Worth Center
10:05PM 33.3356 -96.9708 262° West 236 272 3,000 -600 Descending Fort Worth Center
10:06PM 33.3256 -97.0381 260° West 236 272 2,600 -600 Descending Fort Worth Center
10:07PM 33.3111 -97.1178 258° West 236 272 1,900 -420 Descending Fort Worth Center
10:08PM 33.3028 -97.1722 260° West 209 241 1,800 -180 Descending Fort Worth Center
10:09PM 33.2694 -97.1972 212° Southwest 154 177 1,600 -360 Descending Fort Worth Center
10:10PM 33.2319 -97.2000 184° South 135 155 1,100 -420 Descending Fort Worth Center
10:11PM 33.1986 -97.2075 191° South 127 146 800 -300 Descending Fort Worth Center